sensor_id;sensor_type;location;lat;lon;timestamp;P1;durP1;ratioP1;P2;durP2;ratioP2
45344;SDS011;31078;48.304;11.896;2022-12-18T00:02:01;73.45;;;24.67;;
45344;SDS011;31078;48.304;11.896;2022-12-18T00:04:28;69.93;;;24.38;;
45344;SDS011;31078;48.304;11.896;2022-12-18T00:06:55;79.78;;;28.00;;
45344;SDS011;31078;48.304;11.896;2022-12-18T00:09:23;68.28;;;25.83;;
45344;SDS011;31078;48.304;11.896;2022-12-18T00:11:49;77.32;;;27.08;;
45344;SDS011;31078;48.304;11.896;2022-12-18T00:14:16;70.15;;;24.92;;
45344;SDS011;31078;48.304;11.896;2022-12-18T00:16:43;70.57;;;24.33;;
45344;SDS011;31078;48.304;11.896;2022-12-18T00:19:11;75.38;;;25.17;;
45344;SDS011;31078;48.304;11.896;2022-12-18T00:21:39;66.97;;;24.73;;
45344;SDS011;31078;48.304;11.896;2022-12-18T00:24:05;72.63;;;24.58;;
45344;SDS011;31078;48.304;11.896;2022-12-18T00:26:34;68.40;;;23.35;;
45344;SDS011;31078;48.304;11.896;2022-12-18T00:29:03;72.57;;;25.25;;
45344;SDS011;31078;48.304;11.896;2022-12-18T00:31:31;71.80;;;24.88;;
45344;SDS011;31078;48.304;11.896;2022-12-18T00:33:58;81.20;;;26.98;;
45344;SDS011;31078;48.304;11.896;2022-12-18T00:36:25;78.47;;;26.65;;
45344;SDS011;31078;48.304;11.896;2022-12-18T00:38:53;83.00;;;26.90;;
45344;SDS011;31078;48.304;11.896;2022-12-18T00:41:21;72.90;;;24.85;;
45344;SDS011;31078;48.304;11.896;2022-12-18T00:44:04;79.35;;;27.83;;
45344;SDS011;31078;48.304;11.896;2022-12-18T00:46:31;74.63;;;25.20;;
45344;SDS011;31078;48.304;11.896;2022-12-18T00:48:57;79.63;;;26.95;;
45344;SDS011;31078;48.304;11.896;2022-12-18T00:51:24;76.95;;;26.27;;
45344;SDS011;31078;48.304;11.896;2022-12-18T00:53:51;80.55;;;26.50;;
45344;SDS011;31078;48.304;11.896;2022-12-18T00:56:18;73.93;;;26.10;;
45344;SDS011;31078;48.304;11.896;2022-12-18T00:58:45;69.35;;;25.10;;
45344;SDS011;31078;48.304;11.896;2022-12-18T01:01:13;70.95;;;25.98;;
45344;SDS011;31078;48.304;11.896;2022-12-18T01:03:39;63.55;;;23.13;;
45344;SDS011;31078;48.304;11.896;2022-12-18T01:06:06;74.13;;;25.98;;
45344;SDS011;31078;48.304;11.896;2022-12-18T01:08:33;72.70;;;24.15;;
45344;SDS011;31078;48.304;11.896;2022-12-18T01:11:00;72.00;;;25.52;;
45344;SDS011;31078;48.304;11.896;2022-12-18T01:13:26;69.82;;;23.85;;
45344;SDS011;31078;48.304;11.896;2022-12-18T01:15:53;68.45;;;24.73;;
45344;SDS011;31078;48.304;11.896;2022-12-18T01:18:21;69.53;;;24.50;;
45344;SDS011;31078;48.304;11.896;2022-12-18T01:20:47;76.00;;;26.25;;
45344;SDS011;31078;48.304;11.896;2022-12-18T01:23:14;83.45;;;26.92;;
45344;SDS011;31078;48.304;11.896;2022-12-18T01:25:40;76.45;;;25.13;;
45344;SDS011;31078;48.304;11.896;2022-12-18T01:28:07;71.03;;;24.70;;
45344;SDS011;31078;48.304;11.896;2022-12-18T01:30:33;70.05;;;24.92;;
45344;SDS011;31078;48.304;11.896;2022-12-18T01:33:00;72.35;;;25.33;;
45344;SDS011;31078;48.304;11.896;2022-12-18T01:35:28;74.55;;;25.48;;
45344;SDS011;31078;48.304;11.896;2022-12-18T01:37:54;74.68;;;26.42;;
45344;SDS011;31078;48.304;11.896;2022-12-18T01:40:21;75.13;;;28.05;;
45344;SDS011;31078;48.304;11.896;2022-12-18T01:42:49;68.32;;;24.27;;
45344;SDS011;31078;48.304;11.896;2022-12-18T01:45:22;76.65;;;26.08;;
45344;SDS011;31078;48.304;11.896;2022-12-18T01:47:52;80.53;;;27.27;;
45344;SDS011;31078;48.304;11.896;2022-12-18T01:50:21;77.22;;;26.55;;
45344;SDS011;31078;48.304;11.896;2022-12-18T01:52:51;74.18;;;25.08;;
45344;SDS011;31078;48.304;11.896;2022-12-18T01:55:22;66.25;;;23.80;;
45344;SDS011;31078;48.304;11.896;2022-12-18T01:57:51;64.10;;;24.75;;
45344;SDS011;31078;48.304;11.896;2022-12-18T02:00:20;65.65;;;23.55;;
45344;SDS011;31078;48.304;11.896;2022-12-18T02:02:48;66.03;;;25.02;;
45344;SDS011;31078;48.304;11.896;2022-12-18T02:05:16;62.58;;;23.10;;
45344;SDS011;31078;48.304;11.896;2022-12-18T02:07:51;61.97;;;23.25;;
45344;SDS011;31078;48.304;11.896;2022-12-18T02:13:01;64.50;;;23.00;;
45344;SDS011;31078;48.304;11.896;2022-12-18T02:15:36;63.05;;;22.23;;
45344;SDS011;31078;48.304;11.896;2022-12-18T02:18:11;57.05;;;22.77;;
45344;SDS011;31078;48.304;11.896;2022-12-18T02:20:43;63.88;;;23.17;;
45344;SDS011;31078;48.304;11.896;2022-12-18T02:23:16;62.45;;;22.83;;
45344;SDS011;31078;48.304;11.896;2022-12-18T02:25:54;62.05;;;22.85;;
45344;SDS011;31078;48.304;11.896;2022-12-18T02:28:40;67.28;;;22.58;;
45344;SDS011;31078;48.304;11.896;2022-12-18T02:31:11;57.45;;;21.23;;
45344;SDS011;31078;48.304;11.896;2022-12-18T02:33:40;58.45;;;20.80;;
45344;SDS011;31078;48.304;11.896;2022-12-18T02:36:10;60.90;;;22.60;;
45344;SDS011;31078;48.304;11.896;2022-12-18T02:38:39;63.88;;;23.33;;
45344;SDS011;31078;48.304;11.896;2022-12-18T02:41:09;55.97;;;21.83;;
45344;SDS011;31078;48.304;11.896;2022-12-18T02:43:37;54.00;;;20.23;;
45344;SDS011;31078;48.304;11.896;2022-12-18T02:48:52;56.92;;;21.55;;
45344;SDS011;31078;48.304;11.896;2022-12-18T02:51:23;52.55;;;20.75;;
45344;SDS011;31078;48.304;11.896;2022-12-18T02:53:59;62.35;;;21.98;;
45344;SDS011;31078;48.304;11.896;2022-12-18T02:56:34;62.25;;;21.80;;
45344;SDS011;31078;48.304;11.896;2022-12-18T02:59:06;60.25;;;21.83;;
45344;SDS011;31078;48.304;11.896;2022-12-18T03:01:38;55.15;;;21.55;;
45344;SDS011;31078;48.304;11.896;2022-12-18T03:04:15;56.33;;;22.00;;
45344;SDS011;31078;48.304;11.896;2022-12-18T03:06:48;57.53;;;22.48;;
45344;SDS011;31078;48.304;11.896;2022-12-18T03:09:19;56.53;;;20.88;;
45344;SDS011;31078;48.304;11.896;2022-12-18T03:11:53;58.80;;;22.17;;
45344;SDS011;31078;48.304;11.896;2022-12-18T03:14:40;61.42;;;21.83;;
45344;SDS011;31078;48.304;11.896;2022-12-18T03:17:10;59.70;;;20.60;;
45344;SDS011;31078;48.304;11.896;2022-12-18T03:19:42;67.88;;;23.52;;
45344;SDS011;31078;48.304;11.896;2022-12-18T03:22:13;68.38;;;24.83;;
45344;SDS011;31078;48.304;11.896;2022-12-18T03:24:41;66.28;;;23.45;;
45344;SDS011;31078;48.304;11.896;2022-12-18T03:27:10;67.32;;;24.13;;
45344;SDS011;31078;48.304;11.896;2022-12-18T03:29:42;58.70;;;22.15;;
45344;SDS011;31078;48.304;11.896;2022-12-18T03:32:15;62.78;;;22.75;;
45344;SDS011;31078;48.304;11.896;2022-12-18T03:34:45;58.60;;;22.52;;
45344;SDS011;31078;48.304;11.896;2022-12-18T03:37:14;60.17;;;20.77;;
45344;SDS011;31078;48.304;11.896;2022-12-18T03:39:41;63.00;;;22.27;;
45344;SDS011;31078;48.304;11.896;2022-12-18T03:42:10;58.30;;;20.92;;
45344;SDS011;31078;48.304;11.896;2022-12-18T03:44:47;57.92;;;22.17;;
45344;SDS011;31078;48.304;11.896;2022-12-18T03:47:23;60.63;;;21.95;;
45344;SDS011;31078;48.304;11.896;2022-12-18T03:49:56;57.13;;;21.20;;
45344;SDS011;31078;48.304;11.896;2022-12-18T03:52:29;57.72;;;23.05;;
45344;SDS011;31078;48.304;11.896;2022-12-18T03:55:01;66.18;;;21.65;;
45344;SDS011;31078;48.304;11.896;2022-12-18T03:57:31;60.88;;;21.70;;
45344;SDS011;31078;48.304;11.896;2022-12-18T04:00:00;58.67;;;22.52;;
45344;SDS011;31078;48.304;11.896;2022-12-18T04:02:30;59.20;;;21.50;;
45344;SDS011;31078;48.304;11.896;2022-12-18T04:05:00;55.22;;;20.50;;
45344;SDS011;31078;48.304;11.896;2022-12-18T04:07:29;65.20;;;21.15;;
45344;SDS011;31078;48.304;11.896;2022-12-18T04:09:56;62.60;;;22.45;;
45344;SDS011;31078;48.304;11.896;2022-12-18T04:12:24;59.90;;;21.33;;
45344;SDS011;31078;48.304;11.896;2022-12-18T04:14:53;55.75;;;20.10;;
45344;SDS011;31078;48.304;11.896;2022-12-18T04:17:19;58.40;;;20.70;;
45344;SDS011;31078;48.304;11.896;2022-12-18T04:19:46;60.92;;;21.35;;
45344;SDS011;31078;48.304;11.896;2022-12-18T04:22:13;54.60;;;20.15;;
45344;SDS011;31078;48.304;11.896;2022-12-18T04:24:39;71.72;;;23.98;;
45344;SDS011;31078;48.304;11.896;2022-12-18T04:27:06;63.28;;;22.45;;
45344;SDS011;31078;48.304;11.896;2022-12-18T04:29:33;55.17;;;19.75;;
45344;SDS011;31078;48.304;11.896;2022-12-18T04:32:01;56.28;;;19.58;;
45344;SDS011;31078;48.304;11.896;2022-12-18T04:34:27;56.70;;;19.23;;
45344;SDS011;31078;48.304;11.896;2022-12-18T04:36:54;58.42;;;20.23;;
45344;SDS011;31078;48.304;11.896;2022-12-18T04:39:20;60.47;;;20.95;;
45344;SDS011;31078;48.304;11.896;2022-12-18T04:41:47;53.72;;;20.17;;
45344;SDS011;31078;48.304;11.896;2022-12-18T04:44:13;57.10;;;19.15;;
45344;SDS011;31078;48.304;11.896;2022-12-18T04:46:40;53.28;;;19.08;;
45344;SDS011;31078;48.304;11.896;2022-12-18T04:49:08;49.67;;;19.15;;
45344;SDS011;31078;48.304;11.896;2022-12-18T04:51:35;50.95;;;19.20;;
45344;SDS011;31078;48.304;11.896;2022-12-18T04:54:02;54.65;;;19.88;;
45344;SDS011;31078;48.304;11.896;2022-12-18T04:56:30;54.70;;;19.23;;
45344;SDS011;31078;48.304;11.896;2022-12-18T04:58:57;54.67;;;20.20;;
45344;SDS011;31078;48.304;11.896;2022-12-18T05:01:24;48.90;;;19.23;;
45344;SDS011;31078;48.304;11.896;2022-12-18T05:03:50;53.97;;;20.20;;
45344;SDS011;31078;48.304;11.896;2022-12-18T05:06:18;65.43;;;21.17;;
45344;SDS011;31078;48.304;11.896;2022-12-18T05:08:45;53.45;;;20.90;;
45344;SDS011;31078;48.304;11.896;2022-12-18T05:11:12;57.13;;;21.10;;
45344;SDS011;31078;48.304;11.896;2022-12-18T05:13:40;59.15;;;21.05;;
45344;SDS011;31078;48.304;11.896;2022-12-18T05:16:07;58.55;;;21.30;;
45344;SDS011;31078;48.304;11.896;2022-12-18T05:18:34;59.50;;;21.65;;
45344;SDS011;31078;48.304;11.896;2022-12-18T05:21:01;55.40;;;20.80;;
45344;SDS011;31078;48.304;11.896;2022-12-18T05:23:29;56.33;;;20.65;;
45344;SDS011;31078;48.304;11.896;2022-12-18T05:25:57;63.53;;;21.17;;
45344;SDS011;31078;48.304;11.896;2022-12-18T05:28:27;54.42;;;20.30;;
45344;SDS011;31078;48.304;11.896;2022-12-18T05:30:56;59.75;;;21.17;;
45344;SDS011;31078;48.304;11.896;2022-12-18T05:33:24;62.92;;;21.02;;
45344;SDS011;31078;48.304;11.896;2022-12-18T05:35:52;55.95;;;20.80;;
45344;SDS011;31078;48.304;11.896;2022-12-18T05:38:20;62.20;;;21.95;;
45344;SDS011;31078;48.304;11.896;2022-12-18T05:40:48;57.90;;;21.48;;
45344;SDS011;31078;48.304;11.896;2022-12-18T05:43:15;61.67;;;20.98;;
45344;SDS011;31078;48.304;11.896;2022-12-18T05:45:42;58.55;;;21.08;;
45344;SDS011;31078;48.304;11.896;2022-12-18T05:48:12;63.05;;;21.08;;
45344;SDS011;31078;48.304;11.896;2022-12-18T05:50:40;63.28;;;21.58;;
45344;SDS011;31078;48.304;11.896;2022-12-18T05:53:08;57.95;;;21.98;;
45344;SDS011;31078;48.304;11.896;2022-12-18T05:55:35;54.75;;;20.05;;
45344;SDS011;31078;48.304;11.896;2022-12-18T05:58:06;62.33;;;21.38;;
45344;SDS011;31078;48.304;11.896;2022-12-18T06:00:34;57.72;;;20.15;;
45344;SDS011;31078;48.304;11.896;2022-12-18T06:03:04;57.38;;;20.98;;
45344;SDS011;31078;48.304;11.896;2022-12-18T06:05:34;57.70;;;19.95;;
45344;SDS011;31078;48.304;11.896;2022-12-18T06:08:01;51.25;;;19.70;;
45344;SDS011;31078;48.304;11.896;2022-12-18T06:10:28;57.17;;;19.08;;
45344;SDS011;31078;48.304;11.896;2022-12-18T06:12:55;61.47;;;18.90;;
45344;SDS011;31078;48.304;11.896;2022-12-18T06:15:23;53.45;;;20.52;;
45344;SDS011;31078;48.304;11.896;2022-12-18T06:17:50;52.50;;;19.20;;
45344;SDS011;31078;48.304;11.896;2022-12-18T06:20:16;57.67;;;19.25;;
45344;SDS011;31078;48.304;11.896;2022-12-18T06:22:43;56.00;;;18.65;;
45344;SDS011;31078;48.304;11.896;2022-12-18T06:25:09;55.88;;;20.00;;
45344;SDS011;31078;48.304;11.896;2022-12-18T06:27:36;48.28;;;19.08;;
45344;SDS011;31078;48.304;11.896;2022-12-18T06:30:03;51.92;;;19.77;;
45344;SDS011;31078;48.304;11.896;2022-12-18T06:32:32;48.05;;;17.60;;
45344;SDS011;31078;48.304;11.896;2022-12-18T06:34:59;50.20;;;18.75;;
45344;SDS011;31078;48.304;11.896;2022-12-18T06:37:25;54.30;;;19.30;;
45344;SDS011;31078;48.304;11.896;2022-12-18T06:39:52;53.25;;;19.38;;
45344;SDS011;31078;48.304;11.896;2022-12-18T06:42:18;55.50;;;19.70;;
45344;SDS011;31078;48.304;11.896;2022-12-18T06:44:45;54.55;;;19.58;;
45344;SDS011;31078;48.304;11.896;2022-12-18T06:47:11;48.80;;;17.58;;
45344;SDS011;31078;48.304;11.896;2022-12-18T06:49:39;57.58;;;20.80;;
45344;SDS011;31078;48.304;11.896;2022-12-18T06:52:06;55.92;;;19.13;;
45344;SDS011;31078;48.304;11.896;2022-12-18T06:54:32;54.13;;;20.23;;
45344;SDS011;31078;48.304;11.896;2022-12-18T06:56:59;60.05;;;19.23;;
45344;SDS011;31078;48.304;11.896;2022-12-18T06:59:25;57.17;;;20.17;;
45344;SDS011;31078;48.304;11.896;2022-12-18T07:01:52;58.00;;;21.13;;
45344;SDS011;31078;48.304;11.896;2022-12-18T07:04:18;61.13;;;22.52;;
45344;SDS011;31078;48.304;11.896;2022-12-18T07:06:46;56.67;;;20.17;;
45344;SDS011;31078;48.304;11.896;2022-12-18T07:09:12;59.05;;;20.58;;
45344;SDS011;31078;48.304;11.896;2022-12-18T07:11:39;59.08;;;20.50;;
45344;SDS011;31078;48.304;11.896;2022-12-18T07:14:05;59.80;;;21.65;;
45344;SDS011;31078;48.304;11.896;2022-12-18T07:16:32;54.67;;;20.65;;
45344;SDS011;31078;48.304;11.896;2022-12-18T07:18:58;54.47;;;20.40;;
45344;SDS011;31078;48.304;11.896;2022-12-18T07:21:25;58.60;;;20.50;;
45344;SDS011;31078;48.304;11.896;2022-12-18T07:23:53;60.40;;;21.88;;
45344;SDS011;31078;48.304;11.896;2022-12-18T07:26:20;54.28;;;20.33;;
45344;SDS011;31078;48.304;11.896;2022-12-18T07:28:48;53.78;;;20.15;;
45344;SDS011;31078;48.304;11.896;2022-12-18T07:31:16;59.05;;;21.08;;
45344;SDS011;31078;48.304;11.896;2022-12-18T07:33:45;59.70;;;20.75;;
45344;SDS011;31078;48.304;11.896;2022-12-18T07:36:12;63.22;;;21.73;;
45344;SDS011;31078;48.304;11.896;2022-12-18T07:38:39;59.88;;;22.05;;
45344;SDS011;31078;48.304;11.896;2022-12-18T07:41:08;58.53;;;22.15;;
45344;SDS011;31078;48.304;11.896;2022-12-18T07:43:36;55.65;;;22.02;;
45344;SDS011;31078;48.304;11.896;2022-12-18T07:46:04;57.13;;;20.50;;
45344;SDS011;31078;48.304;11.896;2022-12-18T07:48:31;60.83;;;21.88;;
45344;SDS011;31078;48.304;11.896;2022-12-18T07:50:59;60.15;;;22.38;;
45344;SDS011;31078;48.304;11.896;2022-12-18T07:53:26;51.83;;;20.25;;
45344;SDS011;31078;48.304;11.896;2022-12-18T07:55:54;48.65;;;20.40;;
45344;SDS011;31078;48.304;11.896;2022-12-18T07:58:23;47.53;;;17.38;;
45344;SDS011;31078;48.304;11.896;2022-12-18T08:00:50;45.90;;;16.63;;
45344;SDS011;31078;48.304;11.896;2022-12-18T08:03:17;41.17;;;16.67;;
45344;SDS011;31078;48.304;11.896;2022-12-18T08:05:44;44.30;;;17.60;;
45344;SDS011;31078;48.304;11.896;2022-12-18T08:08:10;43.90;;;17.27;;
45344;SDS011;31078;48.304;11.896;2022-12-18T08:10:37;49.92;;;19.80;;
45344;SDS011;31078;48.304;11.896;2022-12-18T08:13:04;48.78;;;18.38;;
45344;SDS011;31078;48.304;11.896;2022-12-18T08:15:32;49.90;;;18.35;;
45344;SDS011;31078;48.304;11.896;2022-12-18T08:17:58;44.13;;;16.67;;
45344;SDS011;31078;48.304;11.896;2022-12-18T08:20:25;45.05;;;16.95;;
45344;SDS011;31078;48.304;11.896;2022-12-18T08:22:52;43.03;;;16.52;;
45344;SDS011;31078;48.304;11.896;2022-12-18T08:25:19;43.67;;;16.98;;
45344;SDS011;31078;48.304;11.896;2022-12-18T08:27:45;46.47;;;16.33;;
45344;SDS011;31078;48.304;11.896;2022-12-18T08:30:12;44.05;;;16.77;;
45344;SDS011;31078;48.304;11.896;2022-12-18T08:32:41;46.15;;;16.65;;
45344;SDS011;31078;48.304;11.896;2022-12-18T08:35:08;44.70;;;17.52;;
45344;SDS011;31078;48.304;11.896;2022-12-18T08:37:36;51.78;;;18.23;;
45344;SDS011;31078;48.304;11.896;2022-12-18T08:40:03;45.65;;;18.00;;
45344;SDS011;31078;48.304;11.896;2022-12-18T08:42:31;43.50;;;16.92;;
45344;SDS011;31078;48.304;11.896;2022-12-18T08:45:18;42.17;;;16.45;;
45344;SDS011;31078;48.304;11.896;2022-12-18T08:47:46;40.28;;;15.95;;
45344;SDS011;31078;48.304;11.896;2022-12-18T08:50:12;41.65;;;15.90;;
45344;SDS011;31078;48.304;11.896;2022-12-18T08:52:39;40.85;;;15.82;;
45344;SDS011;31078;48.304;11.896;2022-12-18T08:55:07;37.95;;;15.48;;
45344;SDS011;31078;48.304;11.896;2022-12-18T08:57:34;42.35;;;16.33;;
45344;SDS011;31078;48.304;11.896;2022-12-18T09:00:01;40.40;;;16.42;;
45344;SDS011;31078;48.304;11.896;2022-12-18T09:02:28;42.50;;;15.88;;
45344;SDS011;31078;48.304;11.896;2022-12-18T09:04:56;44.90;;;17.33;;
45344;SDS011;31078;48.304;11.896;2022-12-18T09:07:23;46.50;;;16.80;;
45344;SDS011;31078;48.304;11.896;2022-12-18T09:09:50;42.65;;;16.33;;
45344;SDS011;31078;48.304;11.896;2022-12-18T09:12:16;44.65;;;17.52;;
45344;SDS011;31078;48.304;11.896;2022-12-18T09:14:43;39.67;;;16.20;;
45344;SDS011;31078;48.304;11.896;2022-12-18T09:17:10;37.97;;;15.45;;
45344;SDS011;31078;48.304;11.896;2022-12-18T09:19:36;42.33;;;16.27;;
45344;SDS011;31078;48.304;11.896;2022-12-18T09:22:04;40.72;;;15.95;;
45344;SDS011;31078;48.304;11.896;2022-12-18T09:24:31;42.70;;;17.77;;
45344;SDS011;31078;48.304;11.896;2022-12-18T09:26:57;45.80;;;18.00;;
45344;SDS011;31078;48.304;11.896;2022-12-18T09:29:24;40.67;;;16.33;;
45344;SDS011;31078;48.304;11.896;2022-12-18T09:31:50;43.38;;;15.45;;
45344;SDS011;31078;48.304;11.896;2022-12-18T09:34:17;44.42;;;16.10;;
45344;SDS011;31078;48.304;11.896;2022-12-18T09:36:46;48.13;;;18.33;;
45344;SDS011;31078;48.304;11.896;2022-12-18T09:39:14;45.65;;;17.15;;
45344;SDS011;31078;48.304;11.896;2022-12-18T09:41:41;47.85;;;17.52;;
45344;SDS011;31078;48.304;11.896;2022-12-18T09:44:12;45.45;;;17.75;;
45344;SDS011;31078;48.304;11.896;2022-12-18T09:46:44;45.05;;;18.80;;
45344;SDS011;31078;48.304;11.896;2022-12-18T09:49:14;43.42;;;17.52;;
45344;SDS011;31078;48.304;11.896;2022-12-18T09:51:45;48.90;;;18.50;;
45344;SDS011;31078;48.304;11.896;2022-12-18T09:54:18;40.72;;;16.55;;
45344;SDS011;31078;48.304;11.896;2022-12-18T09:59:18;40.20;;;15.52;;
45344;SDS011;31078;48.304;11.896;2022-12-18T10:01:49;40.95;;;16.52;;
45344;SDS011;31078;48.304;11.896;2022-12-18T10:04:15;40.67;;;16.52;;
45344;SDS011;31078;48.304;11.896;2022-12-18T10:06:43;43.90;;;17.63;;
45344;SDS011;31078;48.304;11.896;2022-12-18T10:11:48;41.30;;;16.63;;
45344;SDS011;31078;48.304;11.896;2022-12-18T10:14:23;47.05;;;18.05;;
45344;SDS011;31078;48.304;11.896;2022-12-18T10:16:58;43.35;;;17.08;;
45344;SDS011;31078;48.304;11.896;2022-12-18T10:19:34;43.92;;;18.75;;
45344;SDS011;31078;48.304;11.896;2022-12-18T10:22:10;41.03;;;17.65;;
45344;SDS011;31078;48.304;11.896;2022-12-18T10:24:47;41.70;;;18.05;;
45344;SDS011;31078;48.304;11.896;2022-12-18T10:27:21;42.65;;;18.45;;
45344;SDS011;31078;48.304;11.896;2022-12-18T10:29:51;46.50;;;19.67;;
45344;SDS011;31078;48.304;11.896;2022-12-18T10:32:19;47.50;;;19.63;;
45344;SDS011;31078;48.304;11.896;2022-12-18T10:34:48;40.10;;;17.23;;
45344;SDS011;31078;48.304;11.896;2022-12-18T10:37:17;42.60;;;17.52;;
45344;SDS011;31078;48.304;11.896;2022-12-18T10:39:46;43.15;;;18.00;;
45344;SDS011;31078;48.304;11.896;2022-12-18T10:42:33;42.72;;;17.35;;
45344;SDS011;31078;48.304;11.896;2022-12-18T10:45:01;44.38;;;19.00;;
45344;SDS011;31078;48.304;11.896;2022-12-18T10:47:29;43.95;;;17.65;;
45344;SDS011;31078;48.304;11.896;2022-12-18T10:49:56;41.63;;;17.70;;
45344;SDS011;31078;48.304;11.896;2022-12-18T10:52:23;41.03;;;17.52;;
45344;SDS011;31078;48.304;11.896;2022-12-18T10:54:54;43.60;;;18.25;;
45344;SDS011;31078;48.304;11.896;2022-12-18T10:57:30;43.08;;;16.83;;
45344;SDS011;31078;48.304;11.896;2022-12-18T11:00:03;44.83;;;19.00;;
45344;SDS011;31078;48.304;11.896;2022-12-18T11:02:46;41.97;;;18.95;;
45344;SDS011;31078;48.304;11.896;2022-12-18T11:05:22;47.17;;;19.65;;
45344;SDS011;31078;48.304;11.896;2022-12-18T11:07:51;45.25;;;17.73;;
45344;SDS011;31078;48.304;11.896;2022-12-18T11:10:21;47.67;;;19.65;;
45344;SDS011;31078;48.304;11.896;2022-12-18T11:12:49;45.97;;;19.73;;
45344;SDS011;31078;48.304;11.896;2022-12-18T11:15:16;41.50;;;19.05;;
45344;SDS011;31078;48.304;11.896;2022-12-18T11:17:47;43.92;;;18.52;;
45344;SDS011;31078;48.304;11.896;2022-12-18T11:20:24;44.33;;;19.42;;
45344;SDS011;31078;48.304;11.896;2022-12-18T11:22:57;49.67;;;19.85;;
45344;SDS011;31078;48.304;11.896;2022-12-18T11:25:26;46.90;;;20.05;;
45344;SDS011;31078;48.304;11.896;2022-12-18T11:27:55;47.88;;;19.80;;
45344;SDS011;31078;48.304;11.896;2022-12-18T11:30:25;43.95;;;19.58;;
45344;SDS011;31078;48.304;11.896;2022-12-18T11:32:54;42.05;;;18.30;;
45344;SDS011;31078;48.304;11.896;2022-12-18T11:35:27;46.00;;;19.67;;
45344;SDS011;31078;48.304;11.896;2022-12-18T11:38:02;42.28;;;19.70;;
45344;SDS011;31078;48.304;11.896;2022-12-18T11:40:38;45.38;;;17.98;;
45344;SDS011;31078;48.304;11.896;2022-12-18T11:43:09;42.28;;;17.85;;
45344;SDS011;31078;48.304;11.896;2022-12-18T11:45:40;46.88;;;18.58;;
45344;SDS011;31078;48.304;11.896;2022-12-18T11:48:12;44.42;;;18.67;;
45344;SDS011;31078;48.304;11.896;2022-12-18T11:53:12;37.95;;;15.70;;
45344;SDS011;31078;48.304;11.896;2022-12-18T11:55:41;39.15;;;17.23;;
45344;SDS011;31078;48.304;11.896;2022-12-18T11:58:18;43.67;;;18.17;;
45344;SDS011;31078;48.304;11.896;2022-12-18T12:00:55;42.67;;;17.98;;
45344;SDS011;31078;48.304;11.896;2022-12-18T12:03:39;37.33;;;16.88;;
45344;SDS011;31078;48.304;11.896;2022-12-18T12:06:38;36.90;;;16.23;;
45344;SDS011;31078;48.304;11.896;2022-12-18T12:09:14;38.33;;;17.45;;
45344;SDS011;31078;48.304;11.896;2022-12-18T12:11:50;42.50;;;17.08;;
45344;SDS011;31078;48.304;11.896;2022-12-18T12:14:34;40.53;;;17.38;;
45344;SDS011;31078;48.304;11.896;2022-12-18T12:19:42;38.83;;;15.98;;
45344;SDS011;31078;48.304;11.896;2022-12-18T12:22:19;36.17;;;15.70;;
45344;SDS011;31078;48.304;11.896;2022-12-18T12:24:57;37.78;;;16.85;;
45344;SDS011;31078;48.304;11.896;2022-12-18T12:27:33;36.35;;;16.13;;
45344;SDS011;31078;48.304;11.896;2022-12-18T12:30:06;38.03;;;16.98;;
45344;SDS011;31078;48.304;11.896;2022-12-18T12:32:42;41.53;;;16.92;;
45344;SDS011;31078;48.304;11.896;2022-12-18T12:35:21;36.35;;;16.00;;
45344;SDS011;31078;48.304;11.896;2022-12-18T12:37:55;37.17;;;16.67;;
45344;SDS011;31078;48.304;11.896;2022-12-18T12:40:32;37.58;;;16.40;;
45344;SDS011;31078;48.304;11.896;2022-12-18T12:43:03;38.95;;;17.23;;
45344;SDS011;31078;48.304;11.896;2022-12-18T12:45:40;36.80;;;15.63;;
45344;SDS011;31078;48.304;11.896;2022-12-18T12:48:15;41.00;;;17.20;;
45344;SDS011;31078;48.304;11.896;2022-12-18T12:50:44;36.35;;;16.90;;
45344;SDS011;31078;48.304;11.896;2022-12-18T12:53:15;41.00;;;18.38;;
45344;SDS011;31078;48.304;11.896;2022-12-18T12:55:48;46.97;;;19.13;;
45344;SDS011;31078;48.304;11.896;2022-12-18T12:58:18;41.00;;;18.23;;
45344;SDS011;31078;48.304;11.896;2022-12-18T13:00:57;42.47;;;18.08;;
45344;SDS011;31078;48.304;11.896;2022-12-18T13:03:32;44.20;;;18.85;;
45344;SDS011;31078;48.304;11.896;2022-12-18T13:06:08;43.22;;;18.95;;
45344;SDS011;31078;48.304;11.896;2022-12-18T13:11:29;37.08;;;16.92;;
45344;SDS011;31078;48.304;11.896;2022-12-18T13:14:21;44.80;;;17.38;;
45344;SDS011;31078;48.304;11.896;2022-12-18T13:16:50;42.30;;;17.13;;
45344;SDS011;31078;48.304;11.896;2022-12-18T13:19:23;44.58;;;19.05;;
45344;SDS011;31078;48.304;11.896;2022-12-18T13:21:53;41.70;;;18.52;;
45344;SDS011;31078;48.304;11.896;2022-12-18T13:24:23;40.92;;;18.75;;
45344;SDS011;31078;48.304;11.896;2022-12-18T13:26:53;41.92;;;17.27;;
45344;SDS011;31078;48.304;11.896;2022-12-18T13:32:19;40.03;;;18.85;;
45344;SDS011;31078;48.304;11.896;2022-12-18T13:34:48;40.10;;;17.77;;
45344;SDS011;31078;48.304;11.896;2022-12-18T13:37:39;38.25;;;17.02;;
45344;SDS011;31078;48.304;11.896;2022-12-18T13:43:22;42.83;;;17.75;;
45344;SDS011;31078;48.304;11.896;2022-12-18T13:46:17;40.95;;;17.70;;
45344;SDS011;31078;48.304;11.896;2022-12-18T13:48:52;46.30;;;19.17;;
45344;SDS011;31078;48.304;11.896;2022-12-18T13:51:21;42.28;;;18.48;;
45344;SDS011;31078;48.304;11.896;2022-12-18T13:53:49;44.58;;;18.33;;
45344;SDS011;31078;48.304;11.896;2022-12-18T13:56:18;45.80;;;19.65;;
45344;SDS011;31078;48.304;11.896;2022-12-18T13:59:12;43.60;;;18.17;;
45344;SDS011;31078;48.304;11.896;2022-12-18T14:01:43;44.28;;;18.42;;
45344;SDS011;31078;48.304;11.896;2022-12-18T14:04:19;47.45;;;19.25;;
45344;SDS011;31078;48.304;11.896;2022-12-18T14:09:11;51.17;;;21.20;;
45344;SDS011;31078;48.304;11.896;2022-12-18T14:11:40;49.75;;;20.73;;
45344;SDS011;31078;48.304;11.896;2022-12-18T14:14:14;46.47;;;19.80;;
45344;SDS011;31078;48.304;11.896;2022-12-18T14:16:42;47.97;;;20.58;;
45344;SDS011;31078;48.304;11.896;2022-12-18T14:19:10;48.47;;;21.02;;
45344;SDS011;31078;48.304;11.896;2022-12-18T14:21:40;44.35;;;18.52;;
45344;SDS011;31078;48.304;11.896;2022-12-18T14:24:14;43.97;;;19.25;;
45344;SDS011;31078;48.304;11.896;2022-12-18T14:26:42;40.97;;;18.30;;
45344;SDS011;31078;48.304;11.896;2022-12-18T14:29:23;41.03;;;18.85;;
45344;SDS011;31078;48.304;11.896;2022-12-18T14:32:04;46.75;;;20.17;;
45344;SDS011;31078;48.304;11.896;2022-12-18T14:34:32;41.92;;;18.40;;
45344;SDS011;31078;48.304;11.896;2022-12-18T14:36:59;41.65;;;18.45;;
45344;SDS011;31078;48.304;11.896;2022-12-18T14:39:27;45.15;;;20.15;;
45344;SDS011;31078;48.304;11.896;2022-12-18T14:41:53;48.58;;;19.02;;
45344;SDS011;31078;48.304;11.896;2022-12-18T14:44:20;44.95;;;18.80;;
45344;SDS011;31078;48.304;11.896;2022-12-18T14:46:48;41.92;;;18.15;;
45344;SDS011;31078;48.304;11.896;2022-12-18T14:49:20;51.80;;;20.73;;
45344;SDS011;31078;48.304;11.896;2022-12-18T14:51:58;44.38;;;19.98;;